« 2016年3月 | トップページ | 2016年5月 »

2016年4月

2016/04/30

### RJNT log 201604 ###

### RJNT log 201604 ###

-- 2016/4/30 sat -----

RJTT-RJNT
ANA   /312 JA8569
ANA313/316 JA68AN
ANA315/    JA85AN
ANA   /320 JA85AN
ANA319/322 JA70AN
ANA321     JA8322

RJCC-RJNT
ANA    /1181 JA85AN
ANA1182      JA85AN

ZYTL-RJNT
CSN613/614 B-2297

ZSPD-RJNT
CSH825/826 B-5142

RCTP-RJNT
CAL170/171 B-18609

-- 2016/4/29 fri -----

RJTT-RJNT

ANA   /312 JA8669
ANA313/316 JA73AN
ANA315/    JA59AN
ANA   /320 JA59AN
ANA319/322 JA74AN
ANA321     JA8569

RJCC-RJNT
ANA    /1181 JA59AN
ANA1182      JA59AN

RKSI-RJNT
AAR128/127 HL8266

RCTP-RJNT
CAL170/171 B-18608

-- 2016/4/28 thu -----

RJTT-RJNT
ANA   /312 JA8971
ANA313/316 JA85AN
ANA315/    JA78AN
ANA   /320 JA78AN
ANA319/322 JA68AN
ANA321     JA8669

RJCC-RJNT
ANA    /1181 JA78AN
ANA1182      JA78AN

RCTP-RJNT
CAL170/171 B-18609

-- 2016/4/27 wed -----

RJTT-RJNT
ANA   /312 JA8677
ANA313/316 JA55AN
ANA315/    JA80AN
ANA   /320 JA80AN
ANA319/322 JA64AN
ANA321     JA8971

RJCC-RJNT
ANA    /1181 JA80AN
ANA1182      JA80AN

ZYTL-RJNT
CSN613/614 B-6041

RCTP-RJNT
CAL170/171 B-18655

-- 2016/4/26 tue -----

RJTT-RJNT
ANA   /312 JA8322
ANA313/316 JA77AN
ANA315/    JA67AN
ANA   /320 JA67AN
ANA319/322 JA73AN
ANA321     JA8677

RJCC-RJNT
ANA    /1181 JA67AN
ANA1182      JA67AN

RKSI-RJNT
AAR128/127 HL8004

ZSPD-RJNT
CSH825/826 B-5145

-- 2016/4/25 mon -----

RJTT-RJNT
ANA   /312 JA604A
ANA313/316 JA68AN
ANA315/    JA62AN
ANA   /320 JA62AN
ANA319/322 JA63AN
ANA321     JA8322

RJCC-RJNT
ANA    /1181 JA62AN
ANA1182      JA62AN

RCTP-RJNT
CAL170/171 B-18612

-- 2016/4/24 sun -----

RJTT-RJNT
ANA   /312 JA604A
ANA313/316 JA70AN
ANA315/    JA64AN
ANA   /320 JA64AN
ANA319/322 JA55AN
ANA321     JA604A

RJCC-RJNT
ANA    /1181 JA64AN
ANA1182      JA64AN

RKSI-RJNT
AAR128/127 HL8279

RCTP-RJNT
CAL170/171 B-18609

-- 2016/4/23 sat ----

RJTT-RJNT
ANA   /312 JA8579
ANA313/316 JA72AN
ANA315/    JA80AN
ANA   /320 JA80AN
ANA319/322 JA71AN
ANA321     JA604A

RJCC-RJNT
ANA    /1181 JA80AN
ANA1182      JA80AN

ZYTL-RJNT
CSN613/614 B-6039

ZSPD-RJNT
CSH825/826 B-5185

RCTP-RJNT
CAL170/171 B-18605

-- 2016/4/22 fri -----

RJTT-RJNT
ANA   /312 JA8677
ANA313/316 JA84AN
ANA315/    JA83AN
ANA   /320 JA83AN
ANA319/322 JA76AN
ANA321     JA8579

RJCC-RJNT
ANA    /1181 JA83AN
ANA1182      JA83AN

RKSI-RJNT
AAR128/127 HL8018

RCTP-RJNT
CAL170/171 B-18606

-- 2016/4/21 thu -----

RJTT-RJNT
ANA   /312 JA8342
ANA313/316 JA62AN
ANA315/    JA63AN
ANA   /320 JA63AN
ANA319/322 JA67AN
ANA321     JA8677

RJCC-RJNT
ANA    /1181 JA63AN
ANA1182      JA63AN

RCTP-RJNT
CAL170/171 B-18612

-- 2016/4/20 wed -----

RJTT-RJNT
ANA   /312 JA607A
ANA313/316 JA75AN
ANA315/    JA8500
ANA   /320 JA83AN
ANA319/322 JA76AN
ANA321     JA8342

RJCC-RJNT
ANA    /1181 JA8500
ANA1182      JA83AN

ZYTL-RJNT
CSN613/614 B-2296

RCTP-RJNT
CAL170/171 B-18657

-- 2016/4/19 tue -----

RJTT-RJNT
ANA   /312 JA8674
ANA313/316 JA66AN
ANA315/    JA55AN
ANA   /320 JA55AN
ANA319/322 JA65AN
ANA321     JA607A

RJCC-RJNT
ANA    /1181 JA55AN
ANA1182      JA55AN

RKSI-RJNT
AAR128/127 HL8266

ZSPD-RJNT
CSH825/826 B-1949

-- 2016/4/18 mon -----

RJTT-RJNT
ANA   /312 JA607A
ANA313/316 JA62AN
ANA315/    JA76AN
ANA   /320 JA76AN
ANA319/322 JA63AN
ANA321     JA8674

RJCC-RJNT
ANA    /1181 JA76AN
ANA1182      JA76AN

RCTP-RJNT
CAL170/171 B-18617

-- 2016/4/17 sun -----

RJTT-RJNT
ANA   /312 JA8971
ANA313/316 JA70AN
ANA315/    JA86AN G/A ATB
ANA   /320 JA86AN
ANA319/322 JA606A
ANA321     JA607A

RJCC-RJNT
ANA    /1181 can
ANA1182      JA86AN

RKSI-RJNT
AAR128/127 HL8267

RCTP-RJNT
CAL170/171 B-18651

-- 2016/4/16 sat ----

RJTT-RJNT
ANA   /312 JA8971
ANA313/316 JA70AN
ANA315/    JA77AN
ANA   /320 JA77AN
ANA319/322 JA55AN
ANA321     JA8569

RJCC-RJNT
ANA    /1181 JA77AN
ANA1182      JA77AN

ZYTL-RJNT
CSN613/614 B-6039

ZSPD-RJNT
CSH825/826 B-5545

RCTP-RJNT
CAL170/171 B-18615

-- 2016/4/15 fri -----

RJTT-RJNT

ANA   /312 JA704A
ANA313/316 JA73AN
ANA315/    JA76AN
ANA   /320 JA76AN
ANA319/322 JA75AN
ANA321     JA8971

RJCC-RJNT
ANA    /1181 JA76AN
ANA1182      JA76AN

RKSI-RJNT
AAR128/127 HL8257

RCTP-RJNT
CAL170/171 B-18601

-- 2016/4/14 thu -----

RJTT-RJNT
ANA   /312 JA8971
ANA313/316 JA59AN
ANA315/    JA84AN
ANA   /320 JA84AN
ANA319/322 JA81AN
ANA321     JA704A

RJCC-RJNT
ANA    /1181 JA84AN
ANA1182      JA84AN

RCTP-RJNT
CAL170/171 B-18610

-- 2016/4/13 wed-----

RJTT-RJNT
ANA   /312 JA8579
ANA313/316 JA80AN
ANA315/    JA86AN
ANA   /320 JA86AN
ANA319/322 JA82AN
ANA321     JA8971

RJCC-RJNT
ANA    /1181 JA86AN
ANA1182      JA86AN

ZYTL-RJNT
CSN613/614 B-6039

-- 2016/4/12 tue -----

RJTT-RJNT
ANA   /312 JA8670
ANA313/316 JA70AN
ANA315/    JA67AN
ANA   /320 JA67AN
ANA319/322 JA61AN
ANA321     JA8579

RJCC-RJNT
ANA    /1181 JA67AN
ANA1182      JA67AN

RKSI-RJNT
AAR128/127 HL8281

ZSPD-RJNT
CSH825/826 B-1968

-- 2016/4/11 mon -----

RJTT-RJNT
ANA   /312 JA824A
ANA313/316 JA60AN
ANA315/    JA82AN
ANA   /320 JA82AN
ANA319/322 JA74AN
ANA321     JA8670

RJCC-RJNT
ANA    /1181 JA82AN
ANA1182      JA82AN

RCTP-RJNT
CAL170/171 B-18607

-- 2016/4/10 sun -----

RJTT-RJNT
ANA   /312 JA8567
ANA313/316 JA77AN
ANA315/    JA82AN
ANA   /320 JA82AN
ANA319/322 JA51AN
ANA321     JA824A

RJCC-RJNT
ANA    /1181 JA82AN
ANA1182      JA82AN

RKSI-RJNT
AAR128/127 HL8266

RCTP-RJNT
CAL170/171 B-18607

-- 2016/4/9 sat -----

RJTT-RJNT
ANA   /312 JA8568
ANA313/316 JA65AN
ANA315/    JA72AN
ANA   /320 JA72AN
ANA319/322 JA61AN
ANA321     JA8567

RJCC-RJNT
ANA    /1181 JA72AN
ANA1182      JA72AN

ZYTL-RJNT
CSN613/614 B-6041

ZSPD-RJNT
CSH825/826 B-1967

-- 2016/4/6 wed -----

RJTT-RJNT
ANA   /312 JA8342
ANA313/316 JA59AN
ANA315/    JA68AN
ANA   /320 JA68AN
ANA319/322 JA75AN
ANA321     JA8677

RJCC-RJNT
ANA    /1181 JA68AN
ANA1182      JA68AN

ZYTL-RJNT
CSN613/614 B-2297

-- 2016/4/5 tue -----

RJTT-RJNT
ANA   /312 JA605A
ANA313/316 JA85AN
ANA315/    JA60AN
ANA   /320 JA60AN
ANA319/322 JA59AN
ANA321     JA8342

RJCC-RJNT
ANA    /1181 JA60AN
ANA1182      JA60AN

RKSI-RJNT
AAR128/127 HL8266

ZSPD-RJNT
CSH825/826 B-5320

-- 2016/4/4 mon -----

RJTT-RJNT
ANA   /312 JA8579
ANA313/316 JA79AN
ANA315/    JA73AN
ANA   /320 JA73AN
ANA319/322 JA62AN
ANA321     JA605A

RJCC-RJNT
ANA    /1181 JA73AN
ANA1182      JA73AN

RCTP-RJNT
CAL170/171 B-18605

RJGG-RJNT-VMMC
VJT516K 9H-VFJ

-- 2016/4/3 sun-----

RJTT-RJNT
ANA   /312 JA8568
ANA313/316 JA69AN
ANA315/    JA67AN
ANA   /320 JA67AN
ANA319/322 JA80AN
ANA321     JA8579

RJCC-RJNT
ANA    /1181 JA67AN
ANA1182      JA67AN

RKSI-RJNT
AAR128/127 HL8265

RCTP-RJNT
CAL170/171 B-18651

-- 2016/4/2 sat-----

RJTT-RJNT
ANA   /312 JA8568
ANA313/316 JA76AN
ANA315/    JA82AN
ANA   /320 JA82AN
ANA319/322 JA81AN
ANA321     JA8568

RJCC-RJNT
ANA    /1181 JA82AN
ANA1182      JA82AN

ZYTL-RJNT
CSN613/614 B-6039

ZSPD-RJNT
CSH825/826 B-5132

VMMC-RJNT-RJGG
VJT516K 9H-VFJ

-- 2016/4/1 fri -----

RJTT-RJNT
ANA   /312 JA8579
ANA313/316 JA60AN
ANA315/    JA75AN
ANA   /320 JA75AN
ANA319/322 JA78AN
ANA321     JA8568

RJCC-RJNT
ANA    /1181 JA75AN
ANA1182      JA75AN

RKSI-RJNT
AAR128/127 HL8266

RCTP-RJNT
CAL170/171 B-18601

| | コメント (0) | トラックバック (0)

2016/04/29

外周2 小松飛行場 2016/4/25 mon

その1からつづき

午後にはランチェン。スカイパークこまつ翼に移動してみましょう。移動中に東京消防庁のJA119Aが飛来。

RJNK 250300Z 33007KT 9000 FEW035 BKN270 17/10 Q1018

20160425_rjnk_50f228056

お昼前に上がったDJが返ってきました。

20160425_rjnk_51f228056

22-8056 F-15DJ 303SQ E-M

20160425_rjnk_52e543458

54-3458 E-2C 601SQ

RJNK 250400Z 33006KT 300V010 9000 FEW035 SCT230 BKN270 17/09 Q1018

20160425_rjnk_53f15

午後の部もひよこ組からです。

20160425_rjnk_54b6891

CSE557 ZSPD-RJNK B-6891 A320-214

20160425_rjnk_55b16218

EVA1126 RCTP-RJNK B-16218 A321-211

20160425_rjnk_56f15

どっカーンと、ハイレイト 

20160425_rjnk_57ja8995

JTA36 ROAH-RJNK JA8995 B737-446

20160425_rjnk_58f15

上空を見上げてみると・・ 岐阜の15がフェールダンプをしながら帰投です。僚機が右側で随伴していた。

20160425_rjnk_59ys

ブーン、YSですね

20160425_rjnk_60f528866

52-8866 F-15J 306SQ M27

20160425_rjnk_61ja344j

JAL187 RJTT-RJNK JA344J B737-846

20160425_rjnk_62b6891

CSE558 RJNK-ZSPD B-6891 A320-214

ちょっと、フェンスに近づいてみました。

20160425_rjnk_63f628877

62-8877 F-15J 303SQ E03

20160425_rjnk_64u123028

12-3028 U-125A KOMATSU-ARS A41

今週から小松に来たと聞いている不思議の国の黒

20160425_rjnk_65f528856

52-8856 F-15J 306SQ M27

RJNK 250500Z 34007KT 9999 FEW035 BKN270 18/10 Q1017

20160425_rjnk_66ja08rj

IBX86 RJFF-RJNK JA08RJ CRJ-702ER

20160425_rjnk_67f328087

32-8087 F-15DJ 306SQ T/G M30

20160425_rjnk_68f328941

32-8941 F-15J 306SQ T/G M29

20160425_rjnk_69t165792

16-5792 T-4 306SQ M79

20160425_rjnk_70f15x2

20160425_rjnk_71f328087

32-8087

20160425_rjnk_72f328941

32-8941

20160425_rjnk_73f228809

22-8809 F-15J 306SQ M21

ここも、メラメラが激しく、天気の良い日は、記録にも厳しい環境でした。

| | コメント (0) | トラックバック (0)

2016/04/28

趣味的航空路誌改訂情報 2016/4/28 thu

趣味的航空路誌改訂情報 2016/4/28 thu
4月28日の航空路誌改訂から、めぼしいものをピックアップ。これはあくまでも小生が趣味的にメモとして記録しているものです。

○捜索救難の記載事項の変更

○航空情報業務の記載事項の変更

○ATS 機関の記載事項の変更等
West Japan Civil Aviation Bureau
East Japan Civil Aviation Bureau

○静岡空港における航空気候情報の提供開始等

○着陸料の軽減の改正

○航空航行援助施設利用料の減額の改正

○RNAV 経路の改正
Revision of RNAV route: Y574

○位置通報点の改正
Revision of reporting point;
AMAMI

○熊本VOR/DME(KUE) の制限事項の変更

○調布飛行場における有視界飛行方式の運用方法の改正等
Visual REP OIZUMI, NAKANO, AOBA, KARAKIDA

○中部国際空港における標準計器出発方式の記載事項の変更
CHITA ONE DEPARTURE

○福岡空港における標準計器出発方式の記載事項の変更
OGUNI SIX DEPARTURE

○福島空港における計器進入方式の記載事項の変更
ILS Z or LOC Z RWY01
ILS Y or LOC Y RWY01
VOR RWY19
VOR A

○百里飛行場における計器進入方式の記載事項の変更
ILS Z or LOC Z RWY03R
ILS Y or LOC Y RWY03R
ILS X or LOC X RWY03R
ILS W or LOC W RWY03R
VOR RWY03R
VOR RWY03L
VOR RWY21L
VOR RWY21R
VOR B

○広島空港における待機経路の記載事項の変更

○熊本空港における飛行の方式の改正
KUMAMOTO REVERSAL SIX DEPARTURE → KUMAMOTO REVERSAL SEVEN DEPARTURE
RINDO FOUR DEPARTURE → RINDO FIVE DEPARTURE
VOR RWY07

○女満別空港における誘導路中心線灯の灯質の変更(AIC 038/14 関連) 等

○成田国際空港における飛行場障害物図(Type A,B)の更新等

○仙台空港における計器進入方式の記載事項の変更等
ILS Z or LOC Z RWY27
ILS Y or LOC Y RWY27
VOR RWY27
VOR RWY30
RNAV(GNSS) Z RWY09

○庄内空港における計器進入方式の記載事項の変更
ILS Z or LOC Z RWY09
ILS Y or LOC Y RWY09
LOC RWY27
VOR RWY09
RNAV(GNSS) RWY27

○新石垣空港における飛行場図の改正等

○立川飛行場における最低気象条件の記載事項の変更
WX MINIMA CONCERNING PAR/ASR APCH PROCEDURE(ASR RWY19)

○東京国際空港における局地交通諸規則の改正
6.10 A350-900 のための誘導路運用指針

○東京国際空港における救難機材の改正

○築城飛行場におけるターミナルコントロールエリアの記載事項の変更

【5月20日から有効】

○中部国際空港におけるスポットの新設等
Installation : SPOT NR 505, 506, 507, 508, 500D, 500E, 500F

□小松ILS06(IKM)の運用休止について
小松 ILS06(IKM) 運用休止 2015.9.17 - 2016.5.25

□大湊飛行場における RVRの運用休止について
大湊RVRは、測定装置故障のため運用休止される。 -2016.8.17

□入間GCAにおいて使用する周波数の一時変更について
GCA装置の工事のため、GCA-ASR-PARの周波数が一時的に変更される。 2015.11.12 - 2019.3.31

□香川VOR/DME(KTE)の運用休止
香川VOR/DME(KTE) 運用休止 2016.6.23 - 2016.11.9
代替に仮設讃岐VOR/DME(CNE)が運用される
関西国際空港における転移経路の一時変更
MIYAZU TRANSITION
KIBI TRANSITION
KAGAWA NORTH TRANSITION
神戸空港における転移経路の一時変更
KIBI TRANSITION
TAMBA TRANSITION
KAGAWA TRANSITION
AYAYA TRANSITION
大阪国際空港における転移経路の一時変更
KAGAWA TRANSITION
高松空港における標準計器出発方式の一時変更
KAGAWA NORTH TWO DEPARTURE
KAGAWA REVERSAL SEVEN DEPARTURE
高松空港における標準計器到着方式の一時変更
KAGAWA ARRIVAL
高松空港における計器進入方式の一時変更
ILS Z or LOC Z RWY26
ILS Y or LOC Y RWY26
VOR RWY26
VOR A

□吉備VOR/DME(OYE)及び岡山ILS-LOC07(IOY)の運用休止及び代替措置
吉備VOR/DME(OYE) 運用休止 2016.6.23 - 2016.11.9
岡山ILS(LOC-07)(IOY) 運用休止 2016.6.23 - 2016.11.9
代替に仮設鳥城VOR/DME(UJE)の一時運用
代替LOCの一時運用
関西国際空港における待機方式の一時変更
岡山空港における標準計器出発方式の一時変更
KIBI REVERSAL FIVE DEPARTURE
CHIZU ONE DEPARTURE
岡山空港における計器進入方式の一時変更
ILS Z RWY07
LOC RWY07
VOR RWY07
VOR RWY25
RNAV(RNP) RWY07
RNAV(RNP) RWY25
大阪国際空港における転移経路の一時変更
BUMER TRANSITION

□飛行制限区域の設定及び飛行計画経路の一時的な変更等について
2016年伊勢志摩サミ ッ トに関連し、飛行制限区域の設定及び飛行計画経路の一時的変更等が行われる
2016.5.25 - 5.28

□臨時試験空域の設定について(紀伊半島沖)
2016.3.3 - 2018.3.30
MRJ-200型機の試験飛行のため臨時試験飛行空域が設定される
紀伊半島沖臨時試験空域

●VOR・DME・NDB・マーカ廃止計画情報

平成27年度計画(案残)
大津VOR、
秋田DME、那須DME、佐倉DME、大津DME

平成28年度以降計画(案)
関宿VOR、横須賀VOR、鹿児島VOR、屋久島VOR、多良間VOR、与論VOR、南大東VOR

仮設予定
老原VOR/DME(OHE) 抜海VOR/DME(BKE) 小向VOR/DME(KME) 汐見VOR/DME(SOE) 最上VOR/DME(MGE)

| | コメント (0) | トラックバック (0)

2016/04/27

定点 富山空港 2016/4/27 wed

田圃に水が廻って来て、もうこんな時季なんですね。

20160427_rjnt_00kinobori

RJNT 270000Z 34005KT 300V020 CAVOK 16/10 Q1013

20160427_rjnt_01ja55an

20160427_rjnt_02ja55an

20160427_rjnt_03ja55an

ANA313 RJTT-RJNT JA55AN B737-881

20160427_rjnt_04ja6506

JA6506 AS350B3 AKF

20160427_rjnt_05ja6768

今朝は、早朝からサーチ&レスキューに出動していた防災は、エプロンに出たまま。

RJNT 270100Z VRB06KT CAVOK 18/10 Q1012

20160427_rjnt_06ja6768

JA6768 B412EP 富山県消防防災

20160427_rjnt_07b6041

20160427_rjnt_08b6041

CSN613 ZYTL-RJNT B-6041 A319-132

20160427_rjnt_09ja55an

20160427_rjnt_10ja55an

ANA316 RJNT-RJTT JA55AN B737-881

RJNT 270200Z 35011KT 9999 FEW030 BKN/// 17/09 Q1012

20160427_rjnt_11ja80an

20160427_rjnt_12ja80an

20160427_rjnt_13ja80an

ANA315 RJTT-RJNT JA80AN B737-881

20160427_rjnt_14b18655

20160427_rjnt_15b18655

CAL170 RCTP-RJNT B-18655 B737-8MA

20160427_rjnt_16b6041

RJNT 270300Z 35007KT 310V040 9999 FEW030 BKN/// 17/08 Q1011

20160427_rjnt_17b18655

20160427_rjnt_18b6041

CSN614 RJNT-ZYTL B-6041 A319-132

20160427_rjnt_19ja18655

ANA1181 RJNT-RJCC JA80AN B737-881

RJNT 270400Z 01009KT 330V040 9999 FEW030 BKN/// 18/10 Q1011

20160427_rjnt_20b18655

CAL171 RJNT-RCTP B-18655 B737-8MA

20160427_rjnt_21ja9690

JA9690 AS332L AKF

これがやってくると、やっぱりこの季節だなぁと

20160427_rjnt_22ja6768

20160427_rjnt_23ja6768

JA6768 B412EP 富山県消防防災

午後は、別のサーチ&レスキューに、お忙し。

20160427_rjnt_24kinobori

あらら、お父さんは、お疲れ・・・

続きを読む "定点 富山空港 2016/4/27 wed"

| | コメント (0) | トラックバック (0)

2016/04/26

外周 小松飛行場 2016/4/25 mon

富山空港でスターウオーズを見送って、さてぇ・・・・ どないしようか、と思案した結果、そうだ小松へ行こう。と、軽い気持ちでのんびり新しい公園を視察に向かいました。

20160425_rjnk_00ja963a

JA963A AW139 JCG

「こまつ共生の丘」に到着して早速、海保さんがやって来た。

RJNK 250100Z 32006KT 9000 FEW035 BKN270 15/10 Q1019

20160425_rjnk_01f828965

82-8965 F-15J 306SQ M23

20160425_rjnk_02f15x4

もう、メラメラで醜いのですが、証拠写真程度に

20160425_rjnk_03f15x4

ABON

20160425_rjnk_04t465714

46-5714 T-4 CSF FJUI-G

20160425_rjnk_05ja8579

ANA754 RJNK-RJTT JA8579 B767-381

20160425_rjnk_06t715059

71-5059 T-400 41FTS T/G R59

20160425_rjnk_07t215062

21-5062 T-400 41FTS T/G R62

ラナーT/G 2連発

20160425_rjnk_08ja336j

JAL185 RJTT-RJNK JA336J B737-846

20160425_rjnk_09ja10rj

IBX61 RJSS-RJNK JA10RJ CRJ-702ER

20160425_rjnk_10h284556

28-4556 UH-60J KOMATSU-ARS H41

20160425_rjnk_11f228931

遠くからお久の海天狗

20160425_rjnk_12f228931

22-8931 F-15J 304SQ E19

20160425_rjnk_13f428947

42-8947 F-15J 304SQ E20

20160425_rjnk_14f328817

32-8817 F-15J 304SQ E21

20160425_rjnk_15f428829

42-8829 F-15J 303SQ E03

20160425_rjnk_16f428829

303SQのフライトは3本タンクで

RJNK 250200Z 34005KT 300V010 9000 FEW035 BKN270 16/09 Q1019

20160425_rjnk_17k973603

おやおや、灰色のB6

20160425_rjnk_18k973603

20160425_rjnk_19k973603

97-3603 KC-767J 404SQ T/G C61

20160425_rjnk_20f15x4

ひよこ組が見事な編隊で返って来ました。

20160425_rjnk_21f15x3

4機編隊に続いて3機編隊がブレイク

20160425_rjnk_22f128923

20160425_rjnk_23f128923

12-8923 F-15J 306SQ M21

20160425_rjnk_24f028920

02-8920 F-15J 306SQ M22

20160425_rjnk_25f828965

82-8965 F-15J 306SQ M23

20160425_rjnk_26f628959

20160425_rjnk_27f628959

62-8959 F-15J 306SQ M24

20160425_rjnk_28f628958

62-8958 F-15J 306SQ M25

20160425_rjnk_29f628866

62-8866 F-15J 306SQ M26

20160425_rjnk_30f228909

22-8909 F-15J 306SQ M27

20160425_rjnk_31t165792

16-5792 T-4 306SQ M82

20160425_rjnk_32ja64an

ANA753 RJTT-RJNK JA64AN B737-881

20160425_rjnk_33t165663

16-5663 T-4 303SQ T/G E92

20160425_rjnk_34f428829

42-8829 F-15J 303SQ E03

20160425_rjnk_35t165663

16-5663 T-4 303SQ T/G E92

20160425_rjnk_36f428830

42-8830 F-15J 303SQ E02

20160425_rjnk_37f628877

62-8877 F-15J 303SQ E01

20160425_rjnk_38h584593

58-4593 UH-60J KOMATSU-ARS T/G H45

20160425_rjnk_39f228056

22-8056 F-15DJ 303SQ E-M

午前最後に、たぶん岐阜の支援に上がった、標的イーグル

RJNK 250300Z 33007KT 9000 FEW035 BKN270 17/10 Q1018

その2へつづく・・・

| | コメント (0) | トラックバック (0)

2016/04/25

二題 富山空港・伏木港 2016/4/25 mon

ま・さ・か の2日続けての604A投入。青組さんも、いろいろやり繰りして飛来しているんですね。ならば、付き合わなければと朝から河原行き。

RJNT 242200Z VRB02KT CAVOK 11/10 Q1019

20160425_rjnt_00ja604a

天気は晴れなれど、今日も少しモヤットしています。

20160425_rjnt_01ja604a

この尾翼と違う色の取り合わせは、イマイチ

20160425_rjnt_02ja604a

ほほほ、よく見るとエンジン内がモワット

20160425_rjnt_03ja604a

ハヤッ

20160425_rjnt_04ja604a

ANA312 RJNT-RJTT JA604A B737-381ER

これで、今日のお仕事はオワリ かな・・ 次の便まで2時間もあるし・・

で、考えた挙句、チョット公園視察にGo

朝の入港を604Aに譲ったので、夕方の出港お見送りに

20160425_fushiki_10hattori

道すがら、忍者ハットリ君だお

20160425_fushiki_11asuka2

伏木富山港万葉埠頭に「飛鳥Ⅱ」が、早朝入港しています。

20160425_fushiki_12asuka2

今回はJTBによるチャータークルーズ「飛鳥Ⅱで航く 春彩の日本一周クルーズ 10日間」で、日帰り寄港です。

20160425_fushiki_13asuka2

20160425_fushiki_14asuka2

20160425_fushiki_15asuka2

17時出港、出港イベントの中、ドラが鳴り響きます

20160425_fushiki_16asuka2

伏木錬成館さんによるバトントワリング 新しい衣装ですね

20160425_fushiki_17asuka2

おやっさん達のお仕事

20160425_fushiki_18tsurugi

パイロット船「つるぎ」が先導

20160425_fushiki_19tsurugi

自力で離岸

20160425_fushiki_20tsurugi

ウイングでは、船長が帽振。パイロットも見えます。

20160425_fushiki_21tsurugi

付き添いは、「長田丸」

20160425_fushiki_22tsurugi

春の富山は、いかがでしたか? 次の寄港地は秋田

20160425_fushiki_23tsurugi

20160425_fushiki_24tsurugi

20160425_fushiki_25tsurugi

次は夏かな、また来てください。

続きを読む "二題 富山空港・伏木港 2016/4/25 mon"

| | コメント (0) | トラックバック (0)

2016/04/24

☆戦 富山空港 2016/4/24 sun

誰かーB6撮影の動機付けをください。と、神に祈りが通じたのか・・ 昨晩、富山に初めて604Aがやって来た。STAR WARS ANA JET 他の空港では何度か見ていましたが、ようやく地元にやってきてくれました。夜のデッキはお祭りでしたね。(と、言いながら酒に負けてる小生です。)

RJNT 232110Z 34004KT 5000 BR FEW005 SCT010 BKN030 13/12 Q1013 RMK 1ST005 3ST010 5CU030 A2994

20160424_rjnt_00ja604a

今朝は、まるで北海道のような北風が吹く冷たい靄に包まれた河原です。

20160424_rjnt_01ja604a

一泊して、出発準備が進められています。

RJNT 232200Z 36007KT 4000 BR FEW005 SCT009 BKN025 13/11 Q1014

20160424_rjnt_02ja604a

地上スタッフが横断幕でお見送り。

20160424_rjnt_03ja604a

20160424_rjnt_04ja604a

20160424_rjnt_05ja604a

20160424_rjnt_06ja604a_2

20160424_rjnt_07ja604a

軽いのか、アット言う間にエアボーン

20160424_rjnt_08ja604a

ANA312 RJNT-RJTT JA604A B767-381

RJNT 240000Z 05005KT 340V100 5000 BR FEW010 SCT025 BKN030 15/11 Q1014

20160424_rjnt_09ja70an

20160424_rjnt_10ja70an

20160424_rjnt_11ja70an

ANA313 RJTT-RJNT JA70AN B737-881

RJNT 240100Z 33005KT 260V050 6000 SCT025 BKN030 16/11 Q1014

20160424_rjnt_12ja6768

JA6768 B412EP 富山県消防防災

20160424_rjnt_13ja70an

ANA316 RJNT-RJTT JA70AN B737-881

RJNT 240200Z 35008KT 310V020 6000 FEW025 SCT030 BKN/// 17/11 Q1014

20160424_rjnt_14hl8279

20160424_rjnt_15hl8279

AAR128 RKSI-RJNT HL8279 A321-231

20160424_rjnt_16ja3999

JA3999 A36TC

すりーないなーないなーないなー。 ボケボケで証拠写真以下

20160424_rjnt_17ja64an

20160424_rjnt_18ja64an

20160424_rjnt_19ja64an

ANA315 RJTT-RJNT JA64AN B737-881

20160424_rjnt_20ja3815

JA3815 A36

20160424_rjnt_21b18609

20160424_rjnt_22b18609

20160424_rjnt_23b18609

CAL170 RCTP-RJNT B-18609 B737-809

RJNT 240300Z 36013KT 6000 FEW025 BKN/// 16/11 Q1014

20160424_rjnt_24ja64an

ANA1181 RJNT-RJCC JA64AN B737-881

20160424_rjnt_25hl8279

AAR127 RJNT-RKSI HL8279 A321-231

20160424_rjnt_26b18609

CAL171 RJNT-RCTP B-18609 B737-809

RJNT 240400Z 01010KT 6000 FEW030 BKN/// 17/08 Q1013

続きを読む "☆戦 富山空港 2016/4/24 sun"

| | コメント (0) | トラックバック (0)

2016/04/22

定点 富山空港 2016/4/22 fri

頻繁に河原に出かけていますが、決して急にお腹が痛くなったとか、身内に不幸があるとかでは、ありません。今日は、小牧からステルス実証機「X-2」の初フライトがあり、無事岐阜基地に着陸した。

RJNT 220000Z 28013KT 9999 FEW010 17/14 Q1007

20160422_rjnt_00ja84an

20160422_rjnt_01ja84an

20160422_rjnt_02ja84an

20160422_rjnt_03ja84an

ANA313 RJTT-RJNT JA84AN B737-881

RJNT 220100Z 26009KT 9999 FEW015 BKN025 18/13 Q1008

20160422_rjnt_04ja6768

JA6768 B412EP 富山県消防防災

20160422_rjnt_05ja6193

JA6193 B206B AKF

20160422_rjnt_06ja84an

20160422_rjnt_07ja84an

ANA316 RJNT-RJTT JA84AN B737-881

20160422_rjnt_08hl8018

20160422_rjnt_09hl8018

20160422_rjnt_10hl8018

AAR128 RKSI-RJNT HL8018 A321-231

RJNT 220200Z 31008KT 9999 FEW015 BKN020 BKN025 18/13 Q1008

20160422_rjnt_11ja6193

JA6193 B206B AKF

20160422_rjnt_12ja83an

風は右からのクロスから背風より

20160422_rjnt_13ja83an

接地しましたが・・・

20160422_rjnt_14ja83an

バウンド・・

20160422_rjnt_15ja83an

ANA315 RJTT-RJNT JA83AN B737-881

こんな時こそ、動画家の方には記録して欲しい是よ

20160422_rjnt_16car

0-4ではありません。バードストライクの可能性通報で、ランウェイチェック中

20160422_rjnt_17b18606

20160422_rjnt_18b18606

20160422_rjnt_19b18606

20160422_rjnt_20b18606

CAL170 RCTP-RJNT B-18606 B737-809

20160422_rjnt_21biyoku

こお見ると、なかなかのものです。

20160422_rjnt_22ja83an

ANA1181 RJNT-RJCC JA83AN B737-881

RJNT 220300Z 29009KT 260V320 9999 FEW015 SCT020 BKN025 17/13 Q1009

20160422_rjnt_23hl8018

AAR127 RJNT-RKSI HL8018 A321-231

20160422_rjnt_24b18606

CAL171 RJNT-RCTP B-18606 B737-809

RJNT 220400Z 01005KT 330V040 9999 FEW010 BKN015 BKN020 16/13 Q1009

20160422_rjnt_25ja6768

今日も防災さんは、訓練に出かける模様

20160422_rjnt_26ja6768

20160422_rjnt_27ja6768

JA6768 B412EP 富山県消防防災

出かける頻度は高いのですが、相変わらずB6は撮っていません。報道では毎日のように映っているのにね。誰か・・ 動機つげをください。

続きを読む "定点 富山空港 2016/4/22 fri"

| | コメント (0) | トラックバック (0)

2016/04/20

ドクヘリ 富山空港 2016/4/20 wed

今日も朝から良い天気。時間の許す限り定点観測です。

RJNT 200000Z VRB04KT 9999 FEW030 13/04 Q1024

20160420_rjnt_00ja6768

朝から防災へりが引っ張りだされた。

20160420_rjnt_01ja6193

JA6193 B206B AKF

20160420_rjnt_02ja75an

ANA313 RJTT-RJNT JA75AN B737-881

遠くから狙うとメラメラです。

20160420_rjnt_03ja6768

JA6768 B412EP 富山県消防防災

RJNT 200100Z VRB03KT 9999 FEW030 15/03 Q1024

20160420_rjnt_04ja10ym

JA10YM A109SP SAK 富山県ドクターへり

ドクヘリがホットミッションかと思ったら、空港にやってきました。

20160420_rjnt_05ja809h

ほどなくして、県中へリポートに向かう他のドクターへり

20160420_rjnt_06ja10ym

他のドクヘリ受入のため、空港に退避したのですね。乗員は、天気がいいので、外で日向ほっこです。チョット、マヌケですが、仕方ないかな。

20160420_rjnt_07ja139t

JA139T AW139 富山県警察

つるぎがカメラを搭載して、サミット警備の訓練の模様です。

20160420_rjnt_08ja75an

今日の313は、ボコ付きでした。

20160420_rjnt_09ja75an

20160420_rjnt_10ja6768

JA6768 B412EP 富山県消防防災

20160420_rjnt_11ja809h

外来だからローカル運用は良く解らないよね。管制官の説明が足りん。あの娘は、前から危なかしいところがあるけど、そろそろ移動かな。新しい女史も来たみたいだし。

20160420_rjnt_12b2296

なんか、しぶしぶサークリングした南方

20160420_rjnt_13ja75an

ドクヘリの皆さんも、飛行機観覧です。

20160420_rjnt_14ja75an

ANA316 RJNT-RJTT JA75AN B737-881

20160420_rjnt_15b2296

さて、ファイナルに入ってくるのですが・・・

20160420_rjnt_16b2296

んんん、かなりオーバーシュートじゃないかい

20160420_rjnt_17b2296

やってくれます南方。アライン出来ずにG/A。

20160420_rjnt_18b2296

さて、次はどうアプローチするかな・・

20160420_rjnt_19ja6193

JA6193 B206B AKF

20160420_rjnt_20ja809h

ようやく、ダウンウインドでホールドしてきたドクへりは・・

20160420_rjnt_21ja809h

JA809H EC135P2+ HRT

関西広域連合大阪府ドクターヘリ 「もず」です。

20160420_rjnt_22ja809h

尾部に KANSAIもず と標記。

20160420_rjnt_23ja809h

退避していた富山県ドクターヘリと並びました。

20160420_rjnt_24ja10ym

JA10YM A109SP SAK 富山県ドクターへり

RJNT 200200Z 35007KT 290V040 9999 FEW030 SCT/// 16/02 Q1023

20160420_rjnt_25ja10ym

すかさず、富山県ドクヘリはリアルミッションで東部方面へ

20160420_rjnt_26b2296

再度進入して、サークリングに再挑戦

20160420_rjnt_27b2296

今度は、無事着陸ですね。

20160420_rjnt_28b2296

CSN613 ZYTL-RJNT B-2296 A319-132

20160420_rjnt_29ja8500

南方の再進入で待たされていた315はと・・

20160420_rjnt_30ja8500

きゃ、イルカ

20160420_rjnt_31ja8500

20160420_rjnt_32ja8500

ANA315 RJTT-RJNT JA8500 B737-54K

20160420_rjnt_33ja139t

JA139T AW139 富山県警察

20160420_rjnt_34ja6193

JA6193 B206B AKF

20160420_rjnt_35ja809h

到着後すぐ給油をして帰投です。

20160420_rjnt_36ja809h

20160420_rjnt_37ja809h

JA809H EC135P2+ HRT

RJNT 200300Z 35005KT 280V060 9999 FEW030 BKN/// 16/04 Q1022

20160420_rjnt_38ja8500

ANA1181 RJNT-RJCC JA8500 B737-54K

20160420_rjnt_39b18657

20160420_rjnt_40b18657

CAL170 RCTP-RJNT B-18657 B737-8FH

20160420_rjnt_41b2296

CSN614 RJNT-ZYTL B-2296 A319-132

20160420_rjnt_42ja6193

JA6193 B206B AKF

RJNT 200400Z VRB03KT CAVOK 17/04 Q1021

20160420_rjnt_43b18657

20160420_rjnt_44b18657

CAL171 RJNT-RCTP B-18657 B737-8FH

20160420_rjnt_45kamo

本日の先輩 せっかくの熱々でお楽しみのところを、お邪魔してしまいました。

続きを読む "ドクヘリ 富山空港 2016/4/20 wed"

| | コメント (0) | トラックバック (0)

2016/04/17

暴風警報 富山空港 2016/4/17 sun

熊本地方での地震は、おさまるところを知らず、被災された皆様には、ご心情御見舞申し上げます。本震となった地震から、自衛隊の災害派遣が拡大して、周辺の自衛隊も九州行きとなっている。そんな影響から、春のイベントは軒並み中止。残念ですが、小生も身体が空いたので、深夜に発令された暴風警報下の河原へ。

RJNT 170000Z 19033G50KT 9999 -SHRA FEW030 BKN120 20/09 Q0995

20160417_rjnt_00ja70an

風向は正対していますが、富山空港の難点は、この高速効果・・

20160417_rjnt_01ja70an

高速高架に当たった風が上空に上がってWSを発生させます。が、なんとか着陸です。

20160417_rjnt_02ja70an

ANA313 RJTT-RJNT JA70AN B737-881

20160417_rjnt_03honolulu

外航の観光客待ちのバスに・・ ホノルル急行 これで、ハワイに行きましょう

RJNT 170200Z 17023G37KT 9999 FEW020 23/12 Q0994

20160417_rjnt_04ja70an

20160417_rjnt_05ja70an

天候は、青空になっていますが、まだまだ気圧が下がっています。

20160417_rjnt_06ja70an

20160417_rjnt_07ja70an

風は西よりかな

20160417_rjnt_08ja70an

ANA316 RJNT-RJTT JA70AN B737-881

20160417_rjnt_09hl8267

アシアナも風に煽られて、数度態勢を立て直して・・

20160417_rjnt_10hl8267

なんとか着陸

20160417_rjnt_11hl8267

AAR128 RKSI-RJNT HL8267 A321-231

20160417_rjnt_12ja86an

つづくANA315を見守ります・・

20160417_rjnt_13ja86an

20160417_rjnt_14ja86an

あ、吹いた・・ G/Aです

20160417_rjnt_15ja86an

最新機の86でした。Pさんは、再チャレンジすることなく、すぐ羽田リターン。

20160417_rjnt_16ja86an

ANA315 RJTT-RJNT JA86AN B737-881 ATB.RJTT

RJNT 170300Z 18025G39KT 9999 FEW020 25/12 Q0994 WS R20

20160417_rjnt_17b18651

次は中華。今週社長さんも来てましたな・・

20160417_rjnt_18b18651

ファイナルは安定して、難なく着陸でした。

20160417_rjnt_19b18651

CAL170 RCTP-RJNT B-18651 B737-8Q8

20160417_rjnt_20hl8267

20160417_rjnt_21hl8267

20160417_rjnt_22hl8267

AAR127 RJNT-RKSI HL8267 A321-231

RJNT 170400Z 19025KT 9999 FEW020 SCT040 BKN080 28/11 Q0996

20160417_rjnt_23b18651

あいかわらず、風は強いまま。立っていると、吹き飛ばされそうです。

20160417_rjnt_24b18651

20160417_rjnt_25b18651

背後に見える称名滝もゴウゴウと水が落ちています。

20160417_rjnt_26b18651

20160417_rjnt_27b18651

CAL171 RJNT-RCTP B-18651 B737-8Q8

315がATBしてしまったら、千歳行きの1181は当然欠航となってしまいました。千歳でのこの折り返しが何になるか注目していると、なんとJA86ANが羽田から千歳に回航されて、1182で富山にやって来たと言う、おちでした。

春のシーズンも本格化して、ターミナルビル内も変化が・・

20160417_rjnt_30alpen_2

立山雪の大谷のオブジェが国際到着口に設置されました。

20160417_rjnt_31alpen_2

立山黒部アルペーンルート写真展が開催されています。

20160417_rjnt_32taoyuan

中華航空の社長さんが来たからか・・ ランタンのような怪しいオブジェが

20160417_rjnt_33taoyuan

TaoYuan Airline で WELCOM TO TOYAMA

20160417_rjnt_34alpen

立山黒部アルペーンルート全線開通イベントでした。

20160417_rjnt_35iroha

そして、富山ブラックの麺屋「いろは」が開店しました。

続きを読む "暴風警報 富山空港 2016/4/17 sun"

| | コメント (0) | トラックバック (0)

2016/04/12

定点 富山空港 2016/4/12 tue

桜が終われば・・ チューリップ

20160412_rjnt_00terminal

RJNT 120000Z 07004KT 360V150 CAVOK 09/M03 Q1023

20160412_rjnt_01ja70an

20160412_rjnt_02ja70an

20160412_rjnt_03ja70an

ANA313 RJTT-RJNT JA70AN B737-881

RJNT 120100Z 34006KT 280V050 CAVOK 10/M04 Q1023

20160412_rjnt_04ja70an

20160412_rjnt_05ja70an

ANA316 RJNT-RJTT JA70AN B737-881

RJNT 120200Z 36009KT 310V020 CAVOK 10/M03 Q1022

20160412_rjnt_06hl8281

20160412_rjnt_07hl8281

AAR128 RKSI-RJNT HL8281 A321-231

20160412_rjnt_08ja67an

20160412_rjnt_09ja67an

20160412_rjnt_10ja67an

ANA315 RJTT-RJNT JA67AN B737-881

RJNT 120300Z 36008KT 290V060 CAVOK 11/M01 Q1021

20160412_rjnt_11hl8281

AAR127 RJNT-RKSI HL8281 A321-231

20160412_rjnt_12hl8281

鳶にとっては、航空機は、邪魔物

20160412_rjnt_13ja67an

20160412_rjnt_14ja67an

ANA1181 RJNT-RJCC JA67AN B737-881

20160412_rjnt_15b1968

20160412_rjnt_16b1968

20160412_rjnt_17b1968

CSH825 ZSPD-RJNT B-1968 B737-86D

RJNT 120400Z 01006KT 270V050 CAVOK 12/M01 Q1020

20160412_rjnt_18b1968

CSH826 RJNT-ZSPD B-1968 B737-86D

20160412_rjnt_19kamo

今日の先輩 編隊りりぃくぅぅ

20160412_rjnt_20kamo

スロット イン ポジション・・

続きを読む "定点 富山空港 2016/4/12 tue"

| | コメント (0) | トラックバック (0)

2016/04/09

定点 富山空港 2016/4/8 fri

昨日の雨風で、だいぶ桜は散りました。これから新緑が楽しみです。

RJNT 080000Z 18004KT 130V220 9999 FEW002 SCT008 BKN015 13/10 Q1013

20160408_rjnt_00ja6502

JA6502 SA350B3 AKF

20160408_rjnt_01ja62an

20160408_rjnt_02ja62an

20160408_rjnt_03ja62an

ANA313 RJTT-RJNT JA62AN B737-881

RJNT 080100Z VRB05KT 9999 FEW008 SCT020 BKN040 14/10 Q1013

20160408_rjnt_04hl7738

20160408_rjnt_05hl7738

AAR128 RKSI-RJNT HL7738 A320-232

20160408_rjnt_06ja10ym

JA10YM A109SP 富山県ドクターヘリ

20160408_rjnt_07ja62an

ANA316 RJNT-RJTT JA62AN B737-881

RJNT 080200Z 27006KT 220V310 9999 FEW020 SCT040 BKN/// 16/09 Q1013

20160408_rjnt_08ja67an

20160408_rjnt_09ja67an

ANA315 RJTT-RJNT JA67AN B737-881

20160408_rjnt_10b18660

今日は、新しい機体がやって来ました。

20160408_rjnt_11b18660

CAL170 RCTP-RJNT B-18660 B737-8SH

20160408_rjnt_12ja67an

ANA1181 RJNT-RJCC JA67AN B737-881

RJNT 080300Z 25006KT 200V310 9999 FEW020 BKN/// 16/09 Q1013

20160408_rjnt_13hl7738

AAR127 RJNT-RKSI HL7738 A320-232

20160408_rjnt_14b18660

20160408_rjnt_15b18660

20160408_rjnt_16b18660

CAL171 RJNT-RCTP B-18660 B737-8SH

RJNT 080400Z 16003KT 110V280 9999 FEW020 SCT030 BKN/// 17/09 Q1012

20160408_rjnt_17ja6768

20160408_rjnt_18ja6768

JA6768 B412EP 富山県消防防災

RJNT 080500Z 28010KT 250V320 9999 FEW020 SCT030 BKN/// 17/10 Q1012

20160408_rjnt_19ja6506

JA6506 AS350B3 AKF

ダイナが上がってからは、開店休業の富山空港です。他に動く場所もないので、ヘリパッド周辺で時間を潰しています。

20160408_rjnt_20kouen

ドローンは元より、アパッチも飛ばしちゃいけません??

続きを読む "定点 富山空港 2016/4/8 fri"

| | コメント (0) | トラックバック (0)

2016/04/08

追悼 飛行点検隊 2016/4/8 fri

4月6日の夕方、航空機事故の一報がニュース速報として、点滅した。鹿屋で航空自衛隊機と、これしか入ってなかった。その後の夕方のニュースでも、なかなか情報がないのか、詳しい内容が報道されない。少ない情報から、入間の飛行点検隊のU-125が鹿屋飛行場のフライトチェック実施中の事故と理解した。フライトの方向等から、鹿屋TACANのアークフライト中ではと、推測した。

本日ようやく山の斜面に激突して、黒こげに焼けた木々がテレビに写る。その中に赤白のチェックの模様が・・ なんか、目頭が熱くなってきた。そして、発見された乗員の皆さんの名前が発表され、機長は、平岡三佐 え、平岡さん まさか・・ そのまさかだった。

東日本大震災時に、たまたま芦屋に展開していて難を逃れたブルーインパルス。その被災翌日の九州新幹線開業イベントがデビューの予定でしたが、フライトは中止。直後から、震災復旧から芦屋での苦しい再生の道を築いていただいた、飛行班長の平岡勝さんだ。

原因の解明は、これからのこととなるが、亡くなられた6人の自衛隊員の皆さんのご冥福をお祈りするとともに、航空事故絶滅に向けて、不断の努力を願うところです。

20151103_rjtj_08u493043

当該機の#043号機は、昨年の入間航空祭で、見事なフライトデモを披露しました。

20151103_rjtj_16u493043

49-3043 U-125 FCS

こうやって、整備員のいる所に戻ってくるのが、日常だったはずですが。

20110807_rjcj_bi08

2011年8月7日 震災後再開されたツアーの一番最初、千歳航空祭で編隊長としてブルーデビューされた、平岡三佐

20110807_rjcj_bi47

フライト終了後、ビデオクルーに長々とインタビューに答えておられました。

千歳航空祭B.I.編 千歳飛行場 2011/8/7 sun


平岡三佐の活躍をまとめたブログです。困難な任務に、取り組まれ、小生も元気をいただきました。あらためて、ご冥福をお祈りいたします。(wish☆star さんのブログ )

「2011年9月19日 宮城県松島基地 日本を元気に・・・被災した航空自衛隊


合掌


 


 

| | コメント (0) | トラックバック (0)

2016/04/06

定点 富山空港 2016/4/6 wed

お天気も今日まで。今年の桜は、見納めかな・・

RJNT 060100Z VRB03KT 9999 FEW030 BKN/// 15/03 Q1020

20160406_rjnt_00b2297

20160406_rjnt_01b2297

CSN613 ZYTL-RJNT B-2297 A319-231

20160406_rjnt_02ja59an

ANA316 RJNT-RJTT JA59AN B737-881

RJNT 060200Z VRB03KT 9999 FEW030 BKN/// 16/03 Q1020

20160406_rjnt_03ja68an

20160406_rjnt_04ja68an

ANA315 RJTT-RJNT JA68AN B737-881

20160406_rjnt_05ja10ym

JA10YM A109SP 富山県ドクターヘリ 

20160406_rjnt_06b2297

CSN614 RJNT-ZYTL B-2297 A319-132

RJNT 060300Z 02007KT 330V070 9999 FEW030 BKN/// 17/05 Q1019

20160406_rjnt_07ja68an

20160406_rjnt_08ja68an

ANA1181 RJNT-RJCC JA68AN B737-881

20160406_rjnt_09sakura

公園の桜も満開。立山は少しモヤっとした中、綺麗に見えています。

続きを読む "定点 富山空港 2016/4/6 wed"

| | コメント (0) | トラックバック (0)

2016/04/05

定点 富山空港 2016/4/5 tue

朝からVORのトラブルで始発が40分ディレイ。報道によると、結露とのこと。そう言えば、小生の車も屋内のあるのだが、朝まだ昨日の雨が残っていたな。

RJNT 050000Z 22003KT 130V260 9999 FEW015 BKN035 11/09 Q1014

20160405_rjnt_00toe

富山VOR/DME(TOE)

20160405_rjnt_01toe

敷地内に撤去されたTRADの残骸が・・ アンテナ欲しいぃぃ

20160405_rjnt_02ja139t

JA139T AW139 富山県警察

20160405_rjnt_03ja6506

JA6506 AS350B3 AKF

20160405_rjnt_04ja85an

20160405_rjnt_05ja85an

ANA313 RJTT-RJNT JA85AN B737-881

20160405_rjnt_06ja85an_2

カラス君には、なじみの景色

RJNT 050100Z 32004KT 230V010 9999 FEW015 SCT020 BKN030 13/08 Q1014

20160405_rjnt_07ja85an

20160405_rjnt_08ja85an

ANA316 RJNT-RJTT JA85AN B737-881

RJNT 050200Z 30008KT 270V330 9999 FEW020 BKN030 13/06 Q1014

20160405_rjnt_09hl8266

20160405_rjnt_10hl8266

AAR128 RKSI-RJNT HL8266 A321-231

20160405_rjnt_11ja60an

20160405_rjnt_12ja60an

チョットの間に白い木蓮は、全部散ってしまいました。

20160405_rjnt_13ja60an

ANA315 RJTT-RJNT JA60AN B737-881

20160405_rjnt_14ja6506

JA6506 AS350B3 AKF

20160405_rjnt_15ja139t

RW20降り

20160405_rjnt_16ja139t

20160405_rjnt_17ja139t

JA139T AW139 富山県警察

20160405_rjnt_18kiji

今日の先輩

20160405_rjnt_19kiji

りりしい雉さんです。近くに他のオスがいるのか、しきりに鳴いていた。

20160405_rjnt_20kiji

ここは、あなたのテリトリーなのね・・

RJNT 050300Z VRB02KT 9999 FEW035 BKN/// 15/06 Q1013

20160405_rjnt_21hl8266

20160405_rjnt_22hl8266

AAR127 RJNT-RKSI HL8266 A321-231

20160405_rjnt_23ja60an

20160405_rjnt_24ja60an

ANA1181 RJNT-RJCC JA60AN B737-881

20160405_rjnt_25ja01ap

JA01AP MD900 ASP

20160405_rjnt_26ja01ap

後ろから見ると、歌舞伎の隈取のよう

20160405_rjnt_27b5320

20160405_rjnt_28b5320

CSH825 ZSPD-RJNT B-5320 B737-8Q8

RJNT 050400Z 30008KT 260V330 9999 SCT035 BKN/// 15/06 Q1013

20160405_rjnt_29ja6789

JA6789 MD900 AKF

20160405_rjnt_30ja6768

JA6768 B412EP 富山県消防防災

RJNT 050500Z 30009KT 260V340 9999 FEW030 SCT040 16/07 Q1013

20160405_rjnt_31b5320

20160405_rjnt_32b5320

CSH826 RJNT-ZSPD B-5320 B737-8Q8

20160405_rjnt_33fugan

帰路、富岩運河で、fugan号に遭遇

20160405_rjnt_34fugan

屋根にソーラーパネルが付いているのね。

続きを読む "定点 富山空港 2016/4/5 tue"

| | コメント (0) | トラックバック (0)

2016/04/03

定点 富山空港 2016/4/3 sun

昨日からお花見日和ですが、今日はすでに曇りぎみ・・

RJNT 030000Z 17011KT 120V200 9999 FEW030 SCT060 BKN/// 20/09 Q1020

20160403_rjnt_00ja69an

20160403_rjnt_01ja69an

20160403_rjnt_02ja69an

ANA313 RJTT-RJNT JA69AN B737-881

RJNT 030100Z 18013G24KT 9999 FEW030 BKN060 BKN080 20/08 Q1020

20160403_rjnt_03ja69an

20160403_rjnt_04ja69an

20160403_rjnt_05ja69an

20160403_rjnt_06ja69an

ANA316 RJNT-RJTT JA69AN B737-881

RJNT 030200Z 18014KT 9999 FEW030 SCT060 BKN080 20/08 Q1020

20160403_rjnt_07hl8265

20160403_rjnt_08hl8265

AAR128 RKSI-RJNT HL8265 A321-231

20160403_rjnt_09ja67an

20160403_rjnt_10ja67an

ANA315 RJTT-RJNT JA67AN B737-881

RJNT 030300Z 18015KT 9999 FEW030 SCT060 BKN080 21/09 Q1019

20160403_rjnt_11b18651

20160403_rjnt_12b18651

20160403_rjnt_13b18651

CAL170 RCTP-RJNT B-18651 B737-8Q8

20160403_rjnt_14ja67an

20160403_rjnt_15ja67an

20160403_rjnt_16ja67an

ANA1181 RJNT-RJCC JA67AN B737-881

20160403_rjnt_17hl8265

20160403_rjnt_18hl8265

20160403_rjnt_19hl8265

AAR127 RJNT-RKSI HL8265 A321-231

20160403_rjnt_20b18651

20160403_rjnt_21b18651

20160403_rjnt_22b18651

CAL171 RJNT-RCTP B-18651 B737-8Q8

RJNT 030400Z 17013KT 9999 FEW030 SCT060 BKN080 21/09 Q1018

この間は、あまりにも空きすぎ。

RJNT 030600Z 17011KT 140V200 9999 FEW060 SCT080 BKN100 21/09 Q1016

20160403_rjnt_23ja67an

20160403_rjnt_24ja67an

ANA1182 RJCC-RJNT JA67AN B737-881

20160403_rjnt_25kamome

今日の先輩

20160403_rjnt_26kamome

ほたるいかの身投げで、お腹がいっぱいのかもめは、河原中洲でお休みです。

続きを読む "定点 富山空港 2016/4/3 sun"

| | コメント (0) | トラックバック (0)

2016/04/01

定点 富山空港 2016/4/1 fri

新年度になりました。ダイヤは日曜に変更になって初めての河原です。日々桜の開花が伝えられ、春真っ盛りですね。

RJNT 010000Z 35006KT CAVOK 14/03 Q1016

20160401_rjnt_00ja60an

今日は、サークリング祭り

20160401_rjnt_01ja60an

20160401_rjnt_02ja60an

ANA313 RJTT-RJNT JA60AN B737-881

20160401_rjnt_03ja139t

3/30に耐空から帰ってきた県警へりが表に出ていました。

RJNT 010100Z 35005KT 310V030 CAVOK 16/05 Q1016

20160401_rjnt_04ja6193

JA6193 B206B AFK

20160401_rjnt_05ja139t

早速、訓練に出発の模様。エンジンスタート。

20160401_rjnt_06ja139t

JA139T AW139 富山県警察

20160401_rjnt_07ja110v

JA110V R44

20160401_rjnt_08ja60an

20160401_rjnt_09ja60an

ANA316 RJNT-RJTT JA60AN B737-881

RJNT 010200Z 36008KT CAVOK 17/06 Q1015

20160401_rjnt_10ja75an

20160401_rjnt_11ja75an

ん、なかんボコが付いている。

20160401_rjnt_12ja75an

ANA315 RJTT-RJNT JA75AN B737-881

20160401_rjnt_13hl8266

20160401_rjnt_14hl8266

20160401_rjnt_15hl8266

AAR128 RKSI-RJNT HL8266 A321-231

20160401_rjnt_16senpai

今日の先輩

20160401_rjnt_17ja139t

訓練から帰還

20160401_rjnt_18ja139t

JA139T AW139 富山県警察

20160401_rjnt_19b18601

20160401_rjnt_20b18601

CAL170 RCTP-RJNT B-18601 B737-809

RJNT 010300Z 36010KT CAVOK 17/04 Q1015

20160401_rjnt_21ja139t

珍しいことに県防災と県警察の2ショットが見れました。

20160401_rjnt_22ja139t

入替えの間の束の間のランデブー

20160401_rjnt_23ja6768

JA6768 B412EP 富山県消防防災

20160401_rjnt_24ja75an

調べてみると3/19からボコ付けて飛んでる模様

20160401_rjnt_25ja75an

ANA1181 RJNT-RJCC JA75AN B737-881

20160401_rjnt_26hl8266

20160401_rjnt_27hl8266

AAR127 RJNT-RKSI HL8266 A321-231

20160401_rjnt_28b18601

20160401_rjnt_29b18601

CAL171 RJNT-RCTP B-18601 B737-809

もう、この後は16時近くまで定期便は無し。なんがーい、シエスタになってしまいました。

RJNT 010400Z 36009KT 320V030 CAVOK 17/07 Q1015

続きを読む "定点 富山空港 2016/4/1 fri"

| | コメント (0) | トラックバック (0)

« 2016年3月 | トップページ | 2016年5月 »